Arapahoe, Nebraska
Current Conditions -  °F | °C
As of 12:15 PM on Monday 22 Dec 2014 (Local Time) from KHDE Reporting Station
Clear Clear  
Wind Chill: 39°   Ceiling: Unl
Heat Index: 46°   Visibility: 10mi
Dew Point: 33°   Wind: 17mph
Humidity: 60%   Direction: 310°NW
Pressure: 29.53"   Gusts: 26mph
Location:  40.3°N, 99.9°W
Report Text: KHDE 221815Z AUTO 31015G23KT 10SM CLR 08/01 A2953 RMK AO2 T00790005
Loading
Personal Weather Stations






























Interactive Weather Map New forecast layout! Learn more

10-Day Weather Forecast

Advertisements
Track Severe Weather on mobile